Time,TemperatureF,DewpointF,PressureIn,WindDirection,WindDirectionDegrees,WindSpeedMPH,WindSpeedGustMPH,Humidity,HourlyPrecipIn,Conditions,Clouds,dailyrainin,SoftwareType,DateUTC
2014-02-02 00:10:00,35.6,32.1,29.88,NW,315,0.0,-999.0,87,-99.99,,,0.00,Acu-Link.com,2014-02-02 08:10:00,
2014-02-02 00:26:00,36.0,32.8,29.87,ESE,112,0.0,-999.0,88,-99.99,,,0.00,Acu-Link.com,2014-02-02 08:26:00,
2014-02-02 00:41:00,36.0,32.5,29.86,SSE,157,0.0,-999.0,87,-99.99,,,0.00,Acu-Link.com,2014-02-02 08:41:00,
2014-02-02 00:56:00,36.1,33.2,29.86,SSE,157,0.0,-999.0,89,-99.99,,,0.00,Acu-Link.com,2014-02-02 08:56:00,
2014-02-02 01:12:00,36.7,34.3,29.85,SSW,202,0.0,-999.0,91,-99.99,,,0.00,Acu-Link.com,2014-02-02 09:12:00,
2014-02-02 01:27:00,36.9,34.8,29.85,NE,45,0.0,-999.0,92,-99.99,,,0.00,Acu-Link.com,2014-02-02 09:27:00,
2014-02-02 01:42:00,37.4,35.6,29.85,ESE,112,0.0,-999.0,93,-99.99,,,0.00,Acu-Link.com,2014-02-02 09:42:00,
2014-02-02 01:57:00,37.0,34.6,29.85,SE,135,0.0,-999.0,91,-99.99,,,0.00,Acu-Link.com,2014-02-02 09:57:00,
2014-02-02 02:13:00,37.0,34.9,29.85,ESE,112,1.1,-999.0,92,-99.99,,,0.00,Acu-Link.com,2014-02-02 10:13:00,
2014-02-02 02:28:00,37.2,35.1,29.85,SE,135,0.0,-999.0,92,-99.99,,,0.00,Acu-Link.com,2014-02-02 10:28:00,
2014-02-02 02:43:00,37.0,35.2,29.84,SE,135,0.0,-999.0,93,-99.99,,,0.00,Acu-Link.com,2014-02-02 10:43:00,
2014-02-02 02:59:00,37.4,35.6,29.84,SE,135,0.0,-999.0,93,-99.99,,,0.00,Acu-Link.com,2014-02-02 10:59:00,
2014-02-02 03:14:00,37.8,36.0,29.82,ESE,112,0.0,-999.0,93,-99.99,,,0.00,Acu-Link.com,2014-02-02 11:14:00,
2014-02-02 03:29:00,37.8,35.4,29.82,SSE,157,0.0,-999.0,91,-99.99,,,0.00,Acu-Link.com,2014-02-02 11:29:00,
2014-02-02 03:44:00,37.8,35.7,29.81,South,180,0.0,-999.0,92,-99.99,,,0.00,Acu-Link.com,2014-02-02 11:44:00,
2014-02-02 03:59:00,37.8,35.7,29.80,ESE,112,0.0,-999.0,92,-99.99,,,0.00,Acu-Link.com,2014-02-02 11:59:00,
2014-02-02 04:15:00,37.0,34.6,29.79,ESE,112,0.0,-999.0,91,-99.99,,,0.00,Acu-Link.com,2014-02-02 12:15:00,
2014-02-02 04:30:00,36.7,34.9,29.78,ESE,112,0.0,-999.0,93,-99.99,,,0.00,Acu-Link.com,2014-02-02 12:30:00,
2014-02-02 04:45:00,36.7,35.1,29.78,South,180,0.0,-999.0,94,-99.99,,,0.00,Acu-Link.com,2014-02-02 12:45:00,
2014-02-02 05:00:00,36.7,35.4,29.78,ESE,112,0.0,-999.0,95,-99.99,,,0.00,Acu-Link.com,2014-02-02 13:00:00,
2014-02-02 05:16:00,36.5,35.2,29.78,South,180,0.0,-999.0,95,-99.99,,,0.00,Acu-Link.com,2014-02-02 13:16:00,
2014-02-02 05:31:00,36.9,35.9,29.77,ESE,112,0.0,-999.0,96,-99.99,,,0.00,Acu-Link.com,2014-02-02 13:31:00,
2014-02-02 05:46:00,37.8,36.5,29.76,ESE,112,1.7,-999.0,95,-99.99,,,0.00,Acu-Link.com,2014-02-02 13:46:00,
2014-02-02 06:01:00,38.3,36.5,29.76,North,0,0.0,-999.0,93,-99.99,,,0.00,Acu-Link.com,2014-02-02 14:01:00,
2014-02-02 06:17:00,39.4,36.7,29.75,SE,135,2.2,-999.0,90,-99.99,,,0.00,Acu-Link.com,2014-02-02 14:17:00,
2014-02-02 06:32:00,40.8,36.6,29.75,SE,135,1.7,-999.0,85,-99.99,,,0.00,Acu-Link.com,2014-02-02 14:32:00,
2014-02-02 06:47:00,41.9,36.8,29.74,West,270,2.2,-999.0,82,-99.99,,,0.00,Acu-Link.com,2014-02-02 14:47:00,
2014-02-02 07:02:00,42.3,37.2,29.74,NNW,337,2.2,-999.0,82,-99.99,,,0.00,Acu-Link.com,2014-02-02 15:02:00,
2014-02-02 07:17:00,42.3,37.2,29.74,SSE,157,3.2,-999.0,82,-99.99,,,0.00,Acu-Link.com,2014-02-02 15:17:00,
2014-02-02 07:32:00,42.4,37.9,29.74,WSW,247,2.2,-999.0,84,-99.99,,,0.00,Acu-Link.com,2014-02-02 15:32:00,
2014-02-02 07:48:00,41.9,38.9,29.75,SSW,202,0.0,-999.0,89,-99.99,,,0.00,Acu-Link.com,2014-02-02 15:48:00,
2014-02-02 08:03:00,41.5,39.6,29.74,NNE,22,1.7,-999.0,93,-99.99,,,0.03,Acu-Link.com,2014-02-02 16:03:00,
2014-02-02 08:18:00,41.0,39.9,29.74,ESE,112,0.0,-999.0,96,-99.99,,,0.07,Acu-Link.com,2014-02-02 16:18:00,
2014-02-02 08:34:00,40.6,40.1,29.73,SSE,157,1.1,-999.0,98,-99.99,,,0.11,Acu-Link.com,2014-02-02 16:34:00,
2014-02-02 08:49:00,41.0,40.7,29.73,East,90,1.7,-999.0,99,-99.99,,,0.13,Acu-Link.com,2014-02-02 16:49:00,
2014-02-02 09:04:00,41.4,40.9,29.73,South,180,3.2,-999.0,98,-99.99,,,0.17,Acu-Link.com,2014-02-02 17:04:00,
2014-02-02 09:19:00,41.4,41.1,29.73,SE,135,0.0,-999.0,99,-99.99,,,0.19,Acu-Link.com,2014-02-02 17:19:00,
2014-02-02 09:35:00,41.5,41.2,29.73,South,180,2.2,-999.0,99,-99.99,,,0.21,Acu-Link.com,2014-02-02 17:35:00,
2014-02-02 09:50:00,41.9,41.6,29.73,ESE,112,1.7,-999.0,99,-99.99,,,0.28,Acu-Link.com,2014-02-02 17:50:00,
2014-02-02 10:05:00,41.9,41.4,29.72,SW,225,3.2,-999.0,98,-99.99,,,0.30,Acu-Link.com,2014-02-02 18:05:00,
2014-02-02 10:20:00,42.3,41.8,29.72,SW,225,2.2,-999.0,98,-99.99,,,0.32,Acu-Link.com,2014-02-02 18:20:00,
2014-02-02 10:35:00,42.4,41.9,29.72,SW,225,1.7,-999.0,98,-99.99,,,0.33,Acu-Link.com,2014-02-02 18:35:00,
2014-02-02 10:51:00,42.4,41.9,29.71,East,90,1.7,-999.0,98,-99.99,,,0.36,Acu-Link.com,2014-02-02 18:51:00,
2014-02-02 11:06:00,43.2,42.9,29.71,NE,45,1.7,-999.0,99,-99.99,,,0.37,Acu-Link.com,2014-02-02 19:06:00,
2014-02-02 11:21:00,43.9,43.4,29.71,SSE,157,1.7,-999.0,98,-99.99,,,0.37,Acu-Link.com,2014-02-02 19:21:00,
2014-02-02 11:36:00,45.3,44.5,29.71,SSE,157,2.7,-999.0,97,-99.99,,,0.37,Acu-Link.com,2014-02-02 19:36:00,
2014-02-02 11:52:00,46.4,45.6,29.69,ESE,112,2.2,-999.0,97,-99.99,,,0.39,Acu-Link.com,2014-02-02 19:52:00,
2014-02-02 12:07:00,46.4,44.8,29.69,ESE,112,1.7,-999.0,94,-99.99,,,0.39,Acu-Link.com,2014-02-02 20:07:00,
2014-02-02 12:22:00,47.1,45.5,29.69,SSW,202,1.1,-999.0,94,-99.99,,,0.39,Acu-Link.com,2014-02-02 20:22:00,
2014-02-02 12:37:00,47.5,45.0,29.68,SE,135,2.2,-999.0,91,-99.99,,,0.39,Acu-Link.com,2014-02-02 20:37:00,
2014-02-02 12:53:00,47.8,44.4,29.68,SE,135,2.2,-999.0,88,-99.99,,,0.39,Acu-Link.com,2014-02-02 20:53:00,
2014-02-02 13:08:00,48.0,44.6,29.68,SSW,202,1.7,-999.0,88,-99.99,,,0.39,Acu-Link.com,2014-02-02 21:08:00,
2014-02-02 13:23:00,47.7,44.9,29.67,SSW,202,2.7,-999.0,90,-99.99,,,0.39,Acu-Link.com,2014-02-02 21:23:00,
2014-02-02 13:38:00,46.8,44.9,29.67,South,180,0.0,-999.0,93,-99.99,,,0.39,Acu-Link.com,2014-02-02 21:38:00,
2014-02-02 13:54:00,47.5,45.3,29.67,ESE,112,0.0,-999.0,92,-99.99,,,0.39,Acu-Link.com,2014-02-02 21:54:00,
2014-02-02 14:09:00,48.6,45.8,29.68,SE,135,1.1,-999.0,90,-99.99,,,0.39,Acu-Link.com,2014-02-02 22:09:00,
2014-02-02 14:24:00,48.4,45.3,29.67,SSE,157,0.0,-999.0,89,-99.99,,,0.39,Acu-Link.com,2014-02-02 22:24:00,
2014-02-02 14:40:00,51.1,48.0,29.68,East,90,1.7,-999.0,89,-99.99,,,0.39,Acu-Link.com,2014-02-02 22:40:00,
2014-02-02 14:55:00,51.6,46.9,29.68,ESE,112,1.7,-999.0,84,-99.99,,,0.39,Acu-Link.com,2014-02-02 22:55:00,
2014-02-02 15:10:00,51.8,47.1,29.68,ESE,112,1.7,-999.0,84,-99.99,,,0.39,Acu-Link.com,2014-02-02 23:10:00,
2014-02-02 15:26:00,50.9,46.6,29.68,SSE,157,2.2,-999.0,85,-99.99,,,0.39,Acu-Link.com,2014-02-02 23:26:00,
2014-02-02 15:41:00,50.5,46.2,29.69,North,0,0.0,-999.0,85,-99.99,,,0.39,Acu-Link.com,2014-02-02 23:41:00,
2014-02-02 15:56:00,51.6,46.6,29.69,SW,225,1.7,-999.0,83,-99.99,,,0.39,Acu-Link.com,2014-02-02 23:56:00,
2014-02-02 16:11:00,51.3,46.6,29.69,NNE,22,1.7,-999.0,84,-99.99,,,0.39,Acu-Link.com,2014-02-03 00:11:00,
2014-02-02 16:26:00,49.8,45.2,29.70,SW,225,3.2,-999.0,84,-99.99,,,0.39,Acu-Link.com,2014-02-03 00:26:00,
2014-02-02 16:42:00,49.5,45.5,29.70,West,270,1.7,-999.0,86,-99.99,,,0.39,Acu-Link.com,2014-02-03 00:42:00,
2014-02-02 16:57:00,48.7,45.3,29.71,South,180,2.2,-999.0,88,-99.99,,,0.39,Acu-Link.com,2014-02-03 00:57:00,
2014-02-02 17:13:00,48.0,45.2,29.71,West,270,0.0,-999.0,90,-99.99,,,0.40,Acu-Link.com,2014-02-03 01:13:00,
2014-02-02 17:28:00,47.1,44.6,29.71,West,270,0.0,-999.0,91,-99.99,,,0.40,Acu-Link.com,2014-02-03 01:28:00,
2014-02-02 17:43:00,46.0,43.8,29.71,South,180,0.0,-999.0,92,-99.99,,,0.40,Acu-Link.com,2014-02-03 01:43:00,
2014-02-02 17:58:00,45.1,42.6,29.71,WNW,292,0.0,-999.0,91,-99.99,,,0.40,Acu-Link.com,2014-02-03 01:58:00,
2014-02-02 18:14:00,44.2,42.6,29.72,SE,135,0.0,-999.0,94,-99.99,,,0.40,Acu-Link.com,2014-02-03 02:14:00,
2014-02-02 18:29:00,43.7,42.6,29.73,WSW,247,0.0,-999.0,96,-99.99,,,0.40,Acu-Link.com,2014-02-03 02:29:00,
2014-02-02 18:44:00,43.7,43.2,29.73,ESE,112,0.0,-999.0,98,-99.99,,,0.40,Acu-Link.com,2014-02-03 02:44:00,
2014-02-02 18:59:00,44.1,43.6,29.73,ESE,112,0.0,-999.0,98,-99.99,,,0.40,Acu-Link.com,2014-02-03 02:59:00,
2014-02-02 19:15:00,44.1,43.6,29.74,South,180,0.0,-999.0,98,-99.99,,,0.40,Acu-Link.com,2014-02-03 03:15:00,
2014-02-02 19:30:00,43.9,43.1,29.75,SE,135,0.0,-999.0,97,-99.99,,,0.40,Acu-Link.com,2014-02-03 03:30:00,
2014-02-02 19:45:00,43.9,43.1,29.75,NW,315,0.0,-999.0,97,-99.99,,,0.40,Acu-Link.com,2014-02-03 03:45:00,
2014-02-02 20:01:00,43.7,43.2,29.75,SSW,202,0.0,-999.0,98,-99.99,,,0.40,Acu-Link.com,2014-02-03 04:01:00,
2014-02-02 20:16:00,43.7,43.4,29.77,SSW,202,0.0,-999.0,99,-99.99,,,0.41,Acu-Link.com,2014-02-03 04:16:00,
2014-02-02 20:31:00,43.3,43.0,29.77,ESE,112,0.0,-999.0,99,-99.99,,,0.41,Acu-Link.com,2014-02-03 04:31:00,
2014-02-02 20:46:00,42.8,42.5,29.78,SSE,157,0.0,-999.0,99,-99.99,,,0.41,Acu-Link.com,2014-02-03 04:46:00,
2014-02-02 21:02:00,42.4,42.1,29.78,West,270,0.0,-999.0,99,-99.99,,,0.41,Acu-Link.com,2014-02-03 05:02:00,
2014-02-02 21:17:00,42.4,42.1,29.78,WNW,292,0.0,-999.0,99,-99.99,,,0.41,Acu-Link.com,2014-02-03 05:17:00,
2014-02-02 21:32:00,42.4,42.1,29.79,SSW,202,0.0,-999.0,99,-99.99,,,0.41,Acu-Link.com,2014-02-03 05:32:00,
2014-02-02 21:47:00,42.6,42.3,29.79,WNW,292,0.0,-999.0,99,-99.99,,,0.41,Acu-Link.com,2014-02-03 05:47:00,
2014-02-02 22:02:00,42.4,42.1,29.79,West,270,0.0,-999.0,99,-99.99,,,0.41,Acu-Link.com,2014-02-03 06:02:00,
2014-02-02 22:18:00,41.9,41.6,29.79,SSW,202,0.0,-999.0,99,-99.99,,,0.41,Acu-Link.com,2014-02-03 06:18:00,
2014-02-02 22:33:00,41.0,40.7,29.80,WNW,292,0.0,-999.0,99,-99.99,,,0.41,Acu-Link.com,2014-02-03 06:33:00,
2014-02-02 22:48:00,40.5,40.2,29.80,WSW,247,0.0,-999.0,99,-99.99,,,0.41,Acu-Link.com,2014-02-03 06:48:00,
2014-02-02 23:04:00,39.9,39.6,29.81,WSW,247,0.0,-999.0,99,-99.99,,,0.41,Acu-Link.com,2014-02-03 07:04:00,
2014-02-02 23:19:00,39.4,39.1,29.82,West,270,0.0,-999.0,99,-99.99,,,0.41,Acu-Link.com,2014-02-03 07:19:00,
2014-02-02 23:34:00,39.4,39.1,29.82,WNW,292,0.0,-999.0,99,-99.99,,,0.41,Acu-Link.com,2014-02-03 07:34:00,
2014-02-02 23:50:00,39.4,39.1,29.82,WNW,292,0.0,-999.0,99,-99.99,,,0.41,Acu-Link.com,2014-02-03 07:50:00,